createdAt,value
2022-08-01T00:00:49.011Z,22.20
2022-08-01T00:03:36.884Z,22.10
2022-08-01T00:06:24.692Z,22.00
2022-08-01T00:09:12.717Z,21.90
2022-08-01T00:12:12.338Z,21.80
2022-08-01T00:15:00.718Z,21.80
2022-08-01T00:17:48.568Z,21.80
2022-08-01T00:20:36.367Z,21.80
2022-08-01T00:23:24.116Z,21.70
2022-08-01T00:26:14.978Z,21.70
2022-08-01T00:29:02.804Z,21.70
2022-08-01T00:31:59.408Z,21.60
2022-08-01T00:34:47.351Z,21.60
2022-08-01T00:37:35.107Z,21.50
2022-08-01T00:40:23.460Z,21.50
2022-08-01T00:43:11.291Z,21.40
2022-08-01T00:45:59.113Z,21.30
2022-08-01T00:48:47.127Z,21.20
2022-08-01T00:51:35.302Z,21.10
2022-08-01T00:54:25.861Z,21.10
2022-08-01T00:57:15.203Z,21.10
2022-08-01T01:00:04.923Z,21.10
2022-08-01T01:02:52.742Z,21.10
2022-08-01T01:06:47.069Z,21.10
2022-08-01T01:10:02.776Z,21.00
2022-08-01T01:13:02.142Z,20.90
2022-08-01T01:16:00.619Z,21.00
2022-08-01T01:18:54.495Z,21.00
2022-08-01T01:22:09.965Z,21.00
2022-08-01T01:25:04.055Z,20.90
2022-08-01T01:28:13.040Z,20.80
2022-08-01T01:31:03.901Z,20.70
2022-08-01T01:33:54.265Z,20.70
2022-08-01T01:36:44.901Z,20.60
2022-08-01T01:39:36.166Z,20.60
2022-08-01T01:42:27.742Z,20.50
2022-08-01T01:45:17.154Z,20.60
2022-08-01T01:48:06.613Z,20.50
2022-08-01T01:50:57.566Z,20.50
2022-08-01T01:53:46.588Z,20.50
2022-08-01T01:56:36.407Z,20.40
2022-08-01T01:59:30.229Z,20.30
2022-08-01T02:02:19.972Z,20.30
2022-08-01T02:05:11.587Z,20.30
2022-08-01T02:07:59.885Z,20.30
2022-08-01T02:11:07.882Z,20.20
2022-08-01T02:14:02.664Z,20.20
2022-08-01T02:16:51.431Z,20.20
2022-08-01T02:19:41.233Z,20.30
2022-08-01T02:22:36.691Z,20.30
2022-08-01T02:25:29.599Z,20.40
2022-08-01T02:28:27.233Z,20.40
2022-08-01T02:31:21.589Z,20.50
2022-08-01T02:34:14.435Z,20.60
2022-08-01T02:37:02.800Z,20.60
2022-08-01T02:39:53.750Z,20.60
2022-08-01T02:42:47.570Z,20.60
2022-08-01T02:45:38.753Z,20.60
2022-08-01T02:48:27.755Z,20.50
2022-08-01T02:51:17.207Z,20.50
2022-08-01T02:54:08.273Z,20.50
2022-08-01T02:56:58.486Z,20.40
2022-08-01T02:59:48.087Z,20.30
2022-08-01T03:02:37.022Z,20.20
2022-08-01T03:05:26.481Z,20.10
2022-08-01T03:08:15.779Z,19.90
2022-08-01T03:11:05.068Z,19.90
2022-08-01T03:13:55.046Z,19.80
2022-08-01T03:16:45.860Z,19.80
2022-08-01T03:19:35.135Z,19.80
2022-08-01T03:22:25.899Z,19.80
2022-08-01T03:25:16.284Z,19.90
2022-08-01T03:28:06.985Z,19.90
2022-08-01T03:30:55.562Z,19.90
2022-08-01T03:33:43.483Z,19.90
2022-08-01T03:36:33.550Z,19.90
2022-08-01T03:39:26.938Z,19.90
2022-08-01T03:42:21.712Z,19.90
2022-08-01T03:45:15.967Z,20.00
2022-08-01T03:48:14.243Z,20.00
2022-08-01T03:51:02.684Z,20.00
2022-08-01T03:53:52.918Z,20.00
2022-08-01T03:56:42.934Z,20.00
2022-08-01T03:59:32.259Z,20.00
2022-08-01T04:02:22.867Z,20.00
2022-08-01T04:05:11.305Z,20.00
2022-08-01T04:08:00.551Z,20.00
2022-08-01T04:10:50.399Z,20.00
2022-08-01T04:13:38.673Z,20.00
2022-08-01T04:16:27.073Z,20.00
2022-08-01T04:19:14.843Z,20.00
2022-08-01T04:22:03.935Z,20.00
2022-08-01T04:24:57.243Z,19.90
2022-08-01T04:27:51.295Z,19.90
2022-08-01T04:30:40.827Z,19.80
2022-08-01T04:33:30.902Z,19.90
2022-08-01T04:36:24.089Z,19.90
2022-08-01T04:39:13.072Z,19.90
2022-08-01T04:42:04.793Z,19.90
2022-08-01T04:44:52.854Z,19.90
2022-08-01T04:47:41.868Z,19.90
2022-08-01T04:50:29.800Z,19.90
2022-08-01T04:53:19.815Z,20.00
2022-08-01T04:56:08.062Z,20.00
2022-08-01T04:59:20.183Z,20.00
2022-08-01T05:02:19.221Z,20.00
2022-08-01T05:05:07.460Z,19.90
2022-08-01T05:07:55.253Z,20.00
2022-08-01T05:10:43.246Z,20.00
2022-08-01T05:13:31.536Z,20.00
2022-08-01T05:16:19.376Z,20.00
2022-08-01T05:19:09.129Z,20.00
2022-08-01T05:22:00.307Z,20.00
2022-08-01T05:24:49.162Z,20.00
2022-08-01T05:27:40.484Z,20.10
2022-08-01T05:30:28.319Z,20.10
2022-08-01T05:33:16.225Z,20.20
2022-08-01T05:36:04.376Z,20.20
2022-08-01T05:38:53.457Z,20.20
2022-08-01T05:41:42.164Z,20.30
2022-08-01T05:44:30.777Z,20.40
2022-08-01T05:47:18.959Z,20.50
2022-08-01T05:50:07.377Z,20.60
2022-08-01T05:52:55.239Z,20.70
2022-08-01T05:55:43.125Z,20.70
2022-08-01T05:58:31.367Z,20.80
2022-08-01T06:01:20.192Z,21.00
2022-08-01T06:04:08.089Z,21.00
2022-08-01T06:06:55.851Z,21.10
2022-08-01T06:09:43.680Z,21.10
2022-08-01T06:12:35.723Z,21.20
2022-08-01T06:15:23.684Z,21.20
2022-08-01T06:18:11.492Z,21.30
2022-08-01T06:20:59.299Z,21.40
2022-08-01T06:23:47.388Z,21.60
2022-08-01T06:26:36.292Z,21.70
2022-08-01T06:29:24.144Z,21.90
2022-08-01T06:32:12.024Z,22.10
2022-08-01T06:35:18.352Z,22.20
2022-08-01T06:38:06.156Z,22.30
2022-08-01T06:40:54.145Z,22.40
2022-08-01T06:43:41.986Z,22.50
2022-08-01T06:46:32.528Z,22.60
2022-08-01T06:49:21.163Z,22.70
2022-08-01T06:52:09.377Z,22.70
2022-08-01T06:54:57.423Z,22.70
2022-08-01T06:57:53.372Z,22.80
2022-08-01T07:00:43.282Z,23.00
2022-08-01T07:03:53.853Z,23.10
2022-08-01T07:06:38.968Z,23.10
2022-08-01T07:09:27.872Z,23.00
2022-08-01T07:12:15.724Z,22.90
2022-08-01T07:15:06.516Z,23.00
2022-08-01T07:17:54.327Z,23.60
2022-08-01T07:20:51.165Z,24.50
2022-08-01T07:23:45.931Z,25.50
2022-08-01T07:26:34.039Z,26.20
2022-08-01T07:29:26.188Z,26.00
2022-08-01T07:32:13.956Z,25.50
2022-08-01T07:35:03.385Z,25.00
2022-08-01T07:37:51.286Z,24.80
2022-08-01T07:40:39.462Z,24.90
2022-08-01T07:43:27.443Z,25.00
2022-08-01T07:46:15.355Z,25.40
2022-08-01T07:49:05.623Z,25.80
2022-08-01T07:52:03.503Z,26.30
2022-08-01T07:54:52.453Z,26.50
2022-08-01T07:57:40.444Z,26.60
2022-08-01T08:00:29.369Z,26.70
2022-08-01T08:03:17.207Z,26.80
2022-08-01T08:06:05.302Z,26.60
2022-08-01T08:08:56.152Z,26.20
2022-08-01T08:11:50.215Z,25.90
2022-08-01T08:14:38.185Z,25.70
2022-08-01T08:17:26.812Z,25.70
2022-08-01T08:20:14.933Z,25.80
2022-08-01T08:23:42.207Z,25.90
2022-08-01T08:26:31.205Z,26.20
2022-08-01T08:29:22.873Z,26.30
2022-08-01T08:32:11.161Z,26.30
2022-08-01T08:34:59.235Z,26.30
2022-08-01T08:37:49.772Z,26.00
2022-08-01T08:40:39.866Z,25.60
2022-08-01T08:43:27.834Z,25.40
2022-08-01T08:46:17.114Z,25.00
2022-08-01T08:49:06.529Z,24.90
2022-08-01T08:51:59.345Z,24.90
2022-08-01T08:54:47.989Z,25.20
2022-08-01T08:57:36.794Z,25.50
2022-08-01T09:00:24.717Z,25.80
2022-08-01T09:03:13.796Z,25.80
2022-08-01T09:06:01.982Z,25.90
2022-08-01T09:08:50.100Z,26.10
2022-08-01T09:11:38.459Z,26.30
2022-08-01T09:14:31.061Z,26.40
2022-08-01T09:17:21.903Z,26.30
2022-08-01T09:20:25.039Z,26.30
2022-08-01T09:23:54.201Z,26.30
2022-08-01T09:26:42.646Z,26.20
2022-08-01T09:29:37.310Z,26.30
2022-08-01T09:32:34.337Z,26.90
2022-08-01T09:35:31.603Z,27.80
2022-08-01T09:38:28.438Z,28.70
2022-08-01T09:41:37.703Z,29.70
2022-08-01T09:44:44.796Z,30.60
2022-08-01T09:47:47.108Z,31.10
2022-08-01T09:50:43.761Z,31.50
2022-08-01T09:53:51.951Z,32.00
2022-08-01T09:56:51.101Z,32.60
2022-08-01T09:59:57.747Z,32.90
2022-08-01T10:02:56.631Z,32.60
2022-08-01T10:06:10.617Z,32.40
2022-08-01T10:09:05.054Z,33.00
2022-08-01T10:11:59.717Z,32.60
2022-08-01T10:14:56.443Z,31.90
2022-08-01T10:18:01.685Z,31.10
2022-08-01T10:20:49.632Z,30.30
2022-08-01T10:23:39.733Z,29.60
2022-08-01T10:26:36.043Z,29.00
2022-08-01T10:29:59.811Z,28.30
2022-08-01T10:32:39.480Z,27.90
2022-08-01T10:35:47.222Z,27.80
2022-08-01T10:38:41.782Z,28.60
2022-08-01T10:41:35.577Z,29.40
2022-08-01T10:44:28.749Z,29.30
2022-08-01T10:48:06.687Z,29.30
2022-08-01T10:50:59.272Z,29.30
2022-08-01T10:53:56.861Z,28.90
2022-08-01T10:56:53.189Z,28.60
2022-08-01T10:59:59.356Z,28.50
2022-08-01T11:03:04.565Z,28.70
2022-08-01T11:05:56.492Z,28.90
2022-08-01T11:08:54.859Z,28.90
2022-08-01T11:12:23.229Z,28.80
2022-08-01T11:15:12.618Z,28.60
2022-08-01T11:18:04.553Z,28.60
2022-08-01T11:21:59.511Z,28.60
2022-08-01T11:24:11.411Z,28.50
2022-08-01T11:27:23.385Z,28.70
2022-08-01T11:30:13.414Z,28.80
2022-08-01T11:33:11.336Z,28.90
2022-08-01T11:36:17.062Z,29.30
2022-08-01T11:39:13.672Z,29.70
2022-08-01T11:42:22.076Z,29.90
2022-08-01T11:45:18.097Z,29.60
2022-08-01T11:48:20.170Z,29.40
2022-08-01T11:51:21.634Z,29.30
2022-08-01T11:54:17.294Z,29.30
2022-08-01T11:57:33.932Z,29.30
2022-08-01T12:00:24.405Z,29.20
2022-08-01T12:03:16.408Z,29.10
2022-08-01T12:06:12.940Z,28.90
2022-08-01T12:09:24.250Z,28.80
2022-08-01T12:12:18.172Z,28.50
2022-08-01T12:15:09.877Z,28.10
2022-08-01T12:18:09.899Z,28.20
2022-08-01T12:21:07.129Z,28.30
2022-08-01T12:24:03.172Z,28.40
2022-08-01T12:26:55.590Z,28.50
2022-08-01T12:29:47.819Z,28.60
2022-08-01T12:32:41.204Z,28.90
2022-08-01T12:35:31.561Z,29.10
2022-08-01T12:38:23.951Z,29.10
2022-08-01T12:41:15.417Z,29.20
2022-08-01T12:44:06.161Z,29.30
2022-08-01T12:46:54.428Z,29.20
2022-08-01T12:49:46.814Z,29.10
2022-08-01T12:52:35.135Z,29.00
2022-08-01T12:55:33.980Z,29.00
2022-08-01T12:58:25.237Z,29.00
2022-08-01T13:01:26.869Z,28.90
2022-08-01T13:04:17.330Z,28.70
2022-08-01T13:07:05.318Z,28.50
2022-08-01T13:09:53.718Z,28.40
2022-08-01T13:12:54.408Z,28.20
2022-08-01T13:15:44.724Z,28.00
2022-08-01T13:18:34.641Z,27.90
2022-08-01T13:21:52.518Z,27.80
2022-08-01T13:24:41.994Z,27.70
2022-08-01T13:27:30.904Z,27.70
2022-08-01T13:30:21.196Z,27.70
2022-08-01T13:33:09.120Z,27.80
2022-08-01T13:35:57.893Z,28.00
2022-08-01T13:39:04.327Z,28.20
2022-08-01T13:41:53.588Z,28.40
2022-08-01T13:44:42.720Z,28.60
2022-08-01T13:47:32.563Z,28.80
2022-08-01T13:50:20.654Z,28.80
2022-08-01T13:53:08.773Z,28.80
2022-08-01T13:55:57.250Z,28.80
2022-08-01T13:58:45.241Z,28.80
2022-08-01T14:01:34.603Z,28.60
2022-08-01T14:04:24.890Z,28.40
2022-08-01T14:07:21.579Z,28.30
2022-08-01T14:10:26.125Z,28.10
2022-08-01T14:13:18.558Z,28.10
2022-08-01T14:16:11.954Z,28.00
2022-08-01T14:18:59.790Z,28.00
2022-08-01T14:21:48.091Z,28.10
2022-08-01T14:24:35.911Z,28.20
2022-08-01T14:27:29.319Z,28.40
2022-08-01T14:30:17.301Z,28.60
2022-08-01T14:33:07.800Z,28.60
2022-08-01T14:36:05.533Z,28.50
2022-08-01T14:38:54.166Z,28.60
2022-08-01T14:41:47.991Z,28.60
2022-08-01T14:44:38.445Z,28.50
2022-08-01T14:47:33.868Z,28.40
2022-08-01T14:50:21.733Z,28.20
2022-08-01T14:53:12.508Z,28.00
2022-08-01T14:56:00.489Z,28.00
2022-08-01T14:58:48.549Z,28.10
2022-08-01T15:01:36.672Z,28.20
2022-08-01T15:04:24.685Z,28.40
2022-08-01T15:07:12.701Z,28.40
2022-08-01T15:10:03.505Z,28.40
2022-08-01T15:12:51.365Z,28.30
2022-08-01T15:15:39.392Z,28.20
2022-08-01T15:18:34.191Z,28.10
2022-08-01T15:21:40.694Z,28.00
2022-08-01T15:24:32.272Z,27.90
2022-08-01T15:27:20.184Z,27.90
2022-08-01T15:30:08.701Z,27.90
2022-08-01T15:32:56.523Z,27.60
2022-08-01T15:35:44.561Z,27.40
2022-08-01T15:38:32.428Z,27.30
2022-08-01T15:41:23.833Z,27.10
2022-08-01T15:44:14.832Z,27.00
2022-08-01T15:47:04.680Z,26.90
2022-08-01T15:49:52.853Z,26.80
2022-08-01T15:52:40.732Z,26.80
2022-08-01T15:55:28.673Z,26.80
2022-08-01T15:58:16.482Z,26.80
2022-08-01T16:01:04.534Z,26.80
2022-08-01T16:03:55.919Z,26.80
2022-08-01T16:06:46.042Z,26.90
2022-08-01T16:09:36.147Z,26.90
2022-08-01T16:12:23.941Z,27.00
2022-08-01T16:15:11.727Z,27.10
2022-08-01T16:18:02.613Z,27.10
2022-08-01T16:20:50.447Z,27.10
2022-08-01T16:23:40.097Z,27.10
2022-08-01T16:26:28.369Z,27.10
2022-08-01T16:29:16.244Z,27.10
2022-08-01T16:32:17.027Z,27.00
2022-08-01T16:35:12.198Z,27.00
2022-08-01T16:38:01.341Z,27.00
2022-08-01T16:40:50.803Z,26.80
2022-08-01T16:43:38.852Z,26.70
2022-08-01T16:46:33.895Z,26.50
2022-08-01T16:49:21.817Z,26.40
2022-08-01T16:52:10.039Z,26.30
2022-08-01T16:54:58.128Z,26.20
2022-08-01T16:57:45.912Z,26.10
2022-08-01T17:00:35.394Z,26.10
2022-08-01T17:03:46.917Z,26.00
2022-08-01T17:06:31.683Z,25.90
2022-08-01T17:09:20.026Z,25.80
2022-08-01T17:12:08.215Z,25.70
2022-08-01T17:14:56.128Z,25.70
2022-08-01T17:17:43.935Z,25.70
2022-08-01T17:20:31.801Z,25.60
2022-08-01T17:23:19.844Z,25.60
2022-08-01T17:26:07.657Z,25.60
2022-08-01T17:28:55.474Z,25.60
2022-08-01T17:31:43.877Z,25.70
2022-08-01T17:34:31.628Z,25.70
2022-08-01T17:37:19.381Z,25.70
2022-08-01T17:40:37.591Z,25.70
2022-08-01T17:43:16.191Z,25.60
2022-08-01T17:46:03.964Z,25.60
2022-08-01T17:48:51.797Z,25.50
2022-08-01T17:51:39.689Z,25.40
2022-08-01T17:54:30.425Z,25.40
2022-08-01T17:57:18.363Z,25.30
2022-08-01T18:00:08.245Z,25.20
2022-08-01T18:02:56.028Z,25.10
2022-08-01T18:05:43.920Z,25.10
2022-08-01T18:08:31.724Z,25.00
2022-08-01T18:11:20.039Z,25.00
2022-08-01T18:14:09.008Z,24.90
2022-08-01T18:16:57.042Z,24.90
2022-08-01T18:19:46.861Z,24.80
2022-08-01T18:22:34.843Z,24.80
2022-08-01T18:25:23.569Z,24.70
2022-08-01T18:28:22.784Z,24.60
2022-08-01T18:31:21.722Z,24.50
2022-08-01T18:34:10.131Z,24.40
2022-08-01T18:36:57.993Z,24.40
2022-08-01T18:39:46.110Z,24.30
2022-08-01T18:42:33.915Z,24.20
2022-08-01T18:45:21.990Z,24.20
2022-08-01T18:48:10.582Z,24.20
2022-08-01T18:51:00.674Z,24.10
2022-08-01T18:53:48.597Z,24.10
2022-08-01T18:56:36.433Z,24.10
2022-08-01T18:59:24.205Z,24.00
2022-08-01T19:02:12.216Z,24.00
2022-08-01T19:05:00.066Z,23.90
2022-08-01T19:08:06.103Z,23.90
2022-08-01T19:10:55.211Z,23.90
2022-08-01T19:13:43.068Z,23.80
2022-08-01T19:16:31.048Z,23.70
2022-08-01T19:19:27.720Z,23.70
2022-08-01T19:22:16.657Z,23.60
2022-08-01T19:25:05.006Z,23.50
2022-08-01T19:27:54.934Z,23.40
2022-08-01T19:30:43.163Z,23.40
2022-08-01T19:33:42.391Z,23.30
2022-08-01T19:36:30.453Z,23.30
2022-08-01T19:39:23.513Z,23.40
2022-08-01T19:42:13.139Z,23.40
2022-08-01T19:45:05.373Z,23.30
2022-08-01T19:47:57.378Z,23.30
2022-08-01T19:50:48.620Z,23.40
2022-08-01T19:53:39.885Z,23.40
2022-08-01T19:56:30.525Z,23.40
2022-08-01T19:59:21.686Z,23.40
2022-08-01T20:02:09.471Z,23.30
2022-08-01T20:04:59.588Z,23.30
2022-08-01T20:07:47.461Z,23.20
2022-08-01T20:10:38.099Z,23.20
2022-08-01T20:13:39.184Z,23.10
2022-08-01T20:16:29.251Z,23.10
2022-08-01T20:19:19.659Z,23.10
2022-08-01T20:22:09.331Z,23.10
2022-08-01T20:24:59.311Z,23.10
2022-08-01T20:27:48.063Z,23.00
2022-08-01T20:30:36.070Z,23.00
2022-08-01T20:33:24.365Z,22.90
2022-08-01T20:36:25.623Z,22.90
2022-08-01T20:39:15.370Z,22.80
2022-08-01T20:42:04.578Z,22.70
2022-08-01T20:44:54.048Z,22.60
2022-08-01T20:47:43.349Z,22.50
2022-08-01T20:50:54.785Z,22.50
2022-08-01T20:53:54.624Z,22.40
2022-08-01T20:56:59.099Z,22.30
2022-08-01T20:59:57.122Z,22.20
2022-08-01T21:03:10.128Z,22.10
2022-08-01T21:06:08.914Z,22.00
2022-08-01T21:09:00.835Z,21.90
2022-08-01T21:12:03.235Z,21.90
2022-08-01T21:14:55.730Z,21.80
2022-08-01T21:18:18.064Z,21.70
2022-08-01T21:21:17.192Z,21.60
2022-08-01T21:24:18.360Z,21.50
2022-08-01T21:27:06.627Z,21.50
2022-08-01T21:29:57.062Z,21.40
2022-08-01T21:32:48.811Z,21.40
2022-08-01T21:35:37.105Z,21.30
2022-08-01T21:38:26.351Z,21.20
2022-08-01T21:41:17.997Z,21.10
2022-08-01T21:44:28.528Z,21.00
2022-08-01T21:47:17.821Z,20.90
2022-08-01T21:50:06.788Z,20.80
2022-08-01T21:53:43.185Z,20.70
2022-08-01T21:56:57.822Z,20.60
2022-08-01T22:00:10.063Z,20.60
2022-08-01T22:03:13.392Z,20.60
2022-08-01T22:06:04.387Z,20.60
2022-08-01T22:08:55.785Z,20.50
2022-08-01T22:12:01.181Z,20.50
2022-08-01T22:14:53.989Z,20.50
2022-08-01T22:17:42.201Z,20.40
2022-08-01T22:20:30.174Z,20.30
2022-08-01T22:23:18.713Z,20.30
2022-08-01T22:26:09.946Z,20.20
2022-08-01T22:28:58.995Z,20.10
2022-08-01T22:31:48.391Z,20.10
2022-08-01T22:34:36.171Z,20.00
2022-08-01T22:37:57.046Z,20.00
2022-08-01T22:40:34.151Z,19.90
2022-08-01T22:43:35.650Z,19.80
2022-08-01T22:46:44.675Z,19.80
2022-08-01T22:49:52.159Z,19.70
2022-08-01T22:52:55.103Z,19.60
2022-08-01T22:55:57.837Z,19.50
2022-08-01T22:58:48.791Z,19.50
2022-08-01T23:01:42.580Z,19.40
2022-08-01T23:04:49.510Z,19.30
2022-08-01T23:07:54.441Z,19.30
2022-08-01T23:10:43.669Z,19.20
2022-08-01T23:13:32.254Z,19.20
2022-08-01T23:16:21.297Z,19.10
2022-08-01T23:19:10.116Z,19.10
2022-08-01T23:22:04.056Z,19.00
2022-08-01T23:25:03.564Z,18.90
2022-08-01T23:28:05.029Z,18.90
2022-08-01T23:30:55.236Z,18.80
2022-08-01T23:33:43.091Z,18.80
2022-08-01T23:36:30.873Z,18.70
2022-08-01T23:39:18.662Z,18.70
2022-08-01T23:42:07.730Z,18.70
2022-08-01T23:44:56.007Z,18.70
2022-08-01T23:47:43.805Z,18.70
2022-08-01T23:50:31.687Z,18.70
2022-08-01T23:53:19.742Z,18.70
2022-08-01T23:56:08.743Z,18.60
2022-08-01T23:58:56.514Z,18.60
